Airfield :
LOGIN :

Register | Disclaimer

   EN    FR    IT 

 










Legend :    VFR   Marginal VFR   IFR   Intensive IFR   Very Intensive IFR
Visi :
Ceiling :
>= 8 km
>= 3000ft
5 to 8 km
1000 to 3000 ft
1500m to 5 km
500 to 1000 ft
800 to 1500m
200 to 500 ft
< 800m
< 200 ft
Symbols :   Thunderstorms  Fog  Heavy snow  Heavy precipitations  Wind > 20 kt
SIGMETs :     Misc.  Thunderstorms  Icing  Turbulence  Mountain Waves  Volcanic Ashes






- Airport Elevation : 468 ft
- IATA code : GRO


LEGE - Girona Costa Brava

CURRENT METAR :
  • 101830Z 22003KT 160V260 9999 FEW014 BKN020 OVC042 12/11 Q1013

EXPIRED METARs :
  • 101800Z VRB02KT 9999 FEW014 BKN020 OVC042 12/11 Q1013
  • 101744Z VRB01KT 9999 FEW014 BKN020 OVC042 13/12 Q1013
  • 101730Z 12003KT 070V160 9999 BKN014 OVC042 12/11 Q1013
  • 101700Z 17004KT 120V200 9999 OVC014 12/11 Q1013
  • 101630Z 16004KT 9999 OVC016 13/11 Q1013
  • 101600Z 18002KT 9999 OVC016 13/11 Q1013

TAF TAF LEGE
Valid from the 10 at 18:00 until the 11 at 18:00 UTC


101700Z 1018/1118 VRB03KT 9999 BKN015 TX22/1113Z TN08/1106Z
TEMPO 1018/1107 3000 BR BKN005
PROB40
TEMPO 1020/1106 0800 FG VV001
BECMG 1107/1109 20010KT



MET'MAP, your aeronautical weather chart ! - Copyright ORBIFLY December 2007 - Disclaimer

ORBIFLY MET'MAP TEAM :

Programming & Development : Alexandra Zaïnal
Concept & original design : Baudouin d'Aumeries
Assistance for programming : Marc-Olivier Méhu
Technical & hardware support : Manuel Goepfert

Contact : metmap@orbifly.com




SOURCES & CREDITS :

   NOAA